Terminal Aerodrome Forecast
Issued by NWS Lubbock, TX

Home | Current Version | Previous Version | Text Only | Print | Product List | Glossary On
Versions: 1 2 3 4 5 6 7 8 9 10 11 12
098
FTUS44 KLUB 251732
TAFLBB
TAF
KLBB 251732Z 2518/2618 26025G35KT 6SM BLDU BKN250
     FM260600 36018KT P6SM SCT130
     FM261500 35019KT P6SM SCT015=

USA.gov is the U.S. government's official web portal to all federal, state and local government web resources and services.